Terminal Aerodrome Forecast
Issued by NWS Twin Cities, MN

Home | Current Version | Previous Version | Graphics & Text | Print | Product List | Glossary On
Versions: 1 2 3 4 5 6 7 8 9 10 11 12 13 14 15 16 17
000
FTUS43 KMPX 031015 AAA
TAFSTC
TAF AMD
KSTC 031015Z 0310/0406 15008KT 6SM -SN OVC040
     FM031300 18007KT 1 1/2SM -SN BR OVC015
     FM031500 25013G18KT 1 1/2SM -SN OVC010
     FM032000 31021G30KT 5SM BLSN FEW007 BKN040
     FM040100 30015G25KT P6SM SKC=

USA.gov is the U.S. government's official web portal to all federal, state and local government web resources and services.